sensor_id;sensor_type;location;lat;lon;timestamp;P1;durP1;ratioP1;P2;durP2;ratioP2
27889;SDS011;15238;49.082;9.102;2023-04-24T00:01:17;0.52;;;0.30;;
27889;SDS011;15238;49.082;9.102;2023-04-24T00:03:19;0.82;;;0.47;;
27889;SDS011;15238;49.082;9.102;2023-04-24T00:05:20;0.28;;;0.20;;
27889;SDS011;15238;49.082;9.102;2023-04-24T00:07:21;1.52;;;0.43;;
27889;SDS011;15238;49.082;9.102;2023-04-24T00:09:22;2.00;;;0.40;;
27889;SDS011;15238;49.082;9.102;2023-04-24T00:11:24;0.47;;;0.20;;
27889;SDS011;15238;49.082;9.102;2023-04-24T00:13:24;0.52;;;0.35;;
27889;SDS011;15238;49.082;9.102;2023-04-24T00:15:25;1.17;;;0.30;;
27889;SDS011;15238;49.082;9.102;2023-04-24T00:17:25;1.55;;;0.47;;
27889;SDS011;15238;49.082;9.102;2023-04-24T00:19:26;1.23;;;0.40;;
27889;SDS011;15238;49.082;9.102;2023-04-24T00:21:26;1.10;;;0.40;;
27889;SDS011;15238;49.082;9.102;2023-04-24T00:23:27;0.38;;;0.32;;
27889;SDS011;15238;49.082;9.102;2023-04-24T00:25:27;1.83;;;0.28;;
27889;SDS011;15238;49.082;9.102;2023-04-24T00:27:28;1.30;;;0.32;;
27889;SDS011;15238;49.082;9.102;2023-04-24T00:29:28;1.38;;;0.40;;
27889;SDS011;15238;49.082;9.102;2023-04-24T00:31:29;1.05;;;0.50;;
27889;SDS011;15238;49.082;9.102;2023-04-24T00:33:29;0.85;;;0.20;;
27889;SDS011;15238;49.082;9.102;2023-04-24T00:35:30;1.55;;;0.30;;
27889;SDS011;15238;49.082;9.102;2023-04-24T00:37:31;1.00;;;0.30;;
27889;SDS011;15238;49.082;9.102;2023-04-24T00:39:31;0.77;;;0.28;;
27889;SDS011;15238;49.082;9.102;2023-04-24T00:41:32;1.48;;;0.30;;
27889;SDS011;15238;49.082;9.102;2023-04-24T00:43:33;1.05;;;0.55;;
27889;SDS011;15238;49.082;9.102;2023-04-24T00:45:33;6.32;;;0.40;;
27889;SDS011;15238;49.082;9.102;2023-04-24T00:47:34;2.58;;;0.50;;
27889;SDS011;15238;49.082;9.102;2023-04-24T00:49:34;2.03;;;0.55;;
27889;SDS011;15238;49.082;9.102;2023-04-24T00:51:35;1.13;;;0.40;;
27889;SDS011;15238;49.082;9.102;2023-04-24T00:53:36;1.75;;;0.40;;
27889;SDS011;15238;49.082;9.102;2023-04-24T00:55:37;1.83;;;0.20;;
27889;SDS011;15238;49.082;9.102;2023-04-24T00:57:37;2.85;;;0.63;;
27889;SDS011;15238;49.082;9.102;2023-04-24T00:59:38;3.40;;;0.38;;
27889;SDS011;15238;49.082;9.102;2023-04-24T01:01:40;0.77;;;0.35;;
27889;SDS011;15238;49.082;9.102;2023-04-24T01:03:41;0.82;;;0.30;;
27889;SDS011;15238;49.082;9.102;2023-04-24T01:05:42;0.65;;;0.40;;
27889;SDS011;15238;49.082;9.102;2023-04-24T01:07:43;1.77;;;0.43;;
27889;SDS011;15238;49.082;9.102;2023-04-24T01:09:47;3.28;;;0.45;;
27889;SDS011;15238;49.082;9.102;2023-04-24T01:11:50;2.42;;;0.43;;
27889;SDS011;15238;49.082;9.102;2023-04-24T01:13:51;2.20;;;0.40;;
27889;SDS011;15238;49.082;9.102;2023-04-24T01:15:52;0.95;;;0.32;;
27889;SDS011;15238;49.082;9.102;2023-04-24T01:17:52;0.47;;;0.30;;
27889;SDS011;15238;49.082;9.102;2023-04-24T01:19:53;2.78;;;0.38;;
27889;SDS011;15238;49.082;9.102;2023-04-24T01:21:53;1.58;;;0.52;;
27889;SDS011;15238;49.082;9.102;2023-04-24T01:23:58;2.22;;;0.30;;
27889;SDS011;15238;49.082;9.102;2023-04-24T01:25:59;1.48;;;0.35;;
27889;SDS011;15238;49.082;9.102;2023-04-24T01:27:59;0.90;;;0.30;;
27889;SDS011;15238;49.082;9.102;2023-04-24T01:30:00;2.63;;;0.50;;
27889;SDS011;15238;49.082;9.102;2023-04-24T01:32:02;0.77;;;0.50;;
27889;SDS011;15238;49.082;9.102;2023-04-24T01:34:03;1.58;;;0.55;;
27889;SDS011;15238;49.082;9.102;2023-04-24T01:36:04;1.30;;;0.50;;
27889;SDS011;15238;49.082;9.102;2023-04-24T01:38:05;1.85;;;0.40;;
27889;SDS011;15238;49.082;9.102;2023-04-24T01:40:06;3.55;;;0.60;;
27889;SDS011;15238;49.082;9.102;2023-04-24T01:42:07;0.65;;;0.55;;
27889;SDS011;15238;49.082;9.102;2023-04-24T01:44:08;1.45;;;0.50;;
27889;SDS011;15238;49.082;9.102;2023-04-24T01:46:08;1.55;;;0.50;;
27889;SDS011;15238;49.082;9.102;2023-04-24T01:48:09;4.28;;;0.73;;
27889;SDS011;15238;49.082;9.102;2023-04-24T01:50:11;1.75;;;0.70;;
27889;SDS011;15238;49.082;9.102;2023-04-24T01:52:12;1.27;;;0.47;;
27889;SDS011;15238;49.082;9.102;2023-04-24T01:54:13;3.83;;;0.98;;
27889;SDS011;15238;49.082;9.102;2023-04-24T01:56:13;2.20;;;0.70;;
27889;SDS011;15238;49.082;9.102;2023-04-24T01:58:14;2.25;;;0.75;;
27889;SDS011;15238;49.082;9.102;2023-04-24T02:00:15;2.28;;;0.85;;
27889;SDS011;15238;49.082;9.102;2023-04-24T02:02:16;1.83;;;0.50;;
27889;SDS011;15238;49.082;9.102;2023-04-24T02:04:16;1.00;;;0.60;;
27889;SDS011;15238;49.082;9.102;2023-04-24T02:06:17;1.63;;;0.60;;
27889;SDS011;15238;49.082;9.102;2023-04-24T02:08:17;2.50;;;0.63;;
27889;SDS011;15238;49.082;9.102;2023-04-24T02:10:18;0.60;;;0.40;;
27889;SDS011;15238;49.082;9.102;2023-04-24T02:12:18;1.45;;;0.60;;
27889;SDS011;15238;49.082;9.102;2023-04-24T02:14:19;0.88;;;0.40;;
27889;SDS011;15238;49.082;9.102;2023-04-24T02:16:19;0.98;;;0.50;;
27889;SDS011;15238;49.082;9.102;2023-04-24T02:18:20;1.30;;;0.38;;
27889;SDS011;15238;49.082;9.102;2023-04-24T02:20:22;2.10;;;0.40;;
27889;SDS011;15238;49.082;9.102;2023-04-24T02:22:23;1.70;;;0.50;;
27889;SDS011;15238;49.082;9.102;2023-04-24T02:24:23;1.42;;;0.40;;
27889;SDS011;15238;49.082;9.102;2023-04-24T02:26:24;1.85;;;0.70;;
27889;SDS011;15238;49.082;9.102;2023-04-24T02:28:25;2.90;;;0.50;;
27889;SDS011;15238;49.082;9.102;2023-04-24T02:30:25;2.53;;;0.60;;
27889;SDS011;15238;49.082;9.102;2023-04-24T02:32:26;4.63;;;0.70;;
27889;SDS011;15238;49.082;9.102;2023-04-24T02:34:26;4.28;;;0.57;;
27889;SDS011;15238;49.082;9.102;2023-04-24T02:36:27;2.90;;;0.60;;
27889;SDS011;15238;49.082;9.102;2023-04-24T02:38:28;2.33;;;0.50;;
27889;SDS011;15238;49.082;9.102;2023-04-24T02:40:29;0.85;;;0.63;;
27889;SDS011;15238;49.082;9.102;2023-04-24T02:42:29;2.50;;;0.60;;
27889;SDS011;15238;49.082;9.102;2023-04-24T02:44:30;0.60;;;0.40;;
27889;SDS011;15238;49.082;9.102;2023-04-24T02:46:31;1.27;;;0.45;;
27889;SDS011;15238;49.082;9.102;2023-04-24T02:48:31;0.73;;;0.43;;
27889;SDS011;15238;49.082;9.102;2023-04-24T02:50:32;2.67;;;0.73;;
27889;SDS011;15238;49.082;9.102;2023-04-24T02:52:33;2.80;;;0.75;;
27889;SDS011;15238;49.082;9.102;2023-04-24T02:54:33;0.98;;;0.45;;
27889;SDS011;15238;49.082;9.102;2023-04-24T02:56:34;0.47;;;0.25;;
27889;SDS011;15238;49.082;9.102;2023-04-24T02:58:35;1.23;;;0.45;;
27889;SDS011;15238;49.082;9.102;2023-04-24T03:00:35;0.68;;;0.38;;
27889;SDS011;15238;49.082;9.102;2023-04-24T03:02:36;1.75;;;0.40;;
27889;SDS011;15238;49.082;9.102;2023-04-24T03:04:36;2.72;;;0.70;;
27889;SDS011;15238;49.082;9.102;2023-04-24T03:06:37;1.65;;;0.60;;
27889;SDS011;15238;49.082;9.102;2023-04-24T03:08:37;0.55;;;0.43;;
27889;SDS011;15238;49.082;9.102;2023-04-24T03:10:38;0.57;;;0.40;;
27889;SDS011;15238;49.082;9.102;2023-04-24T03:12:38;1.13;;;0.47;;
27889;SDS011;15238;49.082;9.102;2023-04-24T03:14:39;1.73;;;0.40;;
27889;SDS011;15238;49.082;9.102;2023-04-24T03:16:39;0.77;;;0.30;;
27889;SDS011;15238;49.082;9.102;2023-04-24T03:18:40;1.08;;;0.50;;
27889;SDS011;15238;49.082;9.102;2023-04-24T03:20:41;3.55;;;0.35;;
27889;SDS011;15238;49.082;9.102;2023-04-24T03:22:42;1.73;;;0.57;;
27889;SDS011;15238;49.082;9.102;2023-04-24T03:24:42;2.15;;;0.30;;
27889;SDS011;15238;49.082;9.102;2023-04-24T03:26:43;1.65;;;0.40;;
27889;SDS011;15238;49.082;9.102;2023-04-24T03:28:43;3.38;;;0.60;;
27889;SDS011;15238;49.082;9.102;2023-04-24T03:30:44;5.18;;;0.50;;
27889;SDS011;15238;49.082;9.102;2023-04-24T03:32:45;2.10;;;0.50;;
27889;SDS011;15238;49.082;9.102;2023-04-24T03:34:45;1.38;;;0.55;;
27889;SDS011;15238;49.082;9.102;2023-04-24T03:36:46;2.05;;;0.32;;
27889;SDS011;15238;49.082;9.102;2023-04-24T03:38:49;0.50;;;0.40;;
27889;SDS011;15238;49.082;9.102;2023-04-24T03:40:50;0.52;;;0.13;;
27889;SDS011;15238;49.082;9.102;2023-04-24T03:42:50;2.33;;;0.70;;
27889;SDS011;15238;49.082;9.102;2023-04-24T03:44:51;2.90;;;0.57;;
27889;SDS011;15238;49.082;9.102;2023-04-24T03:46:51;1.50;;;0.50;;
27889;SDS011;15238;49.082;9.102;2023-04-24T03:48:52;3.47;;;0.57;;
27889;SDS011;15238;49.082;9.102;2023-04-24T03:50:52;2.17;;;0.45;;
27889;SDS011;15238;49.082;9.102;2023-04-24T03:52:53;1.00;;;0.30;;
27889;SDS011;15238;49.082;9.102;2023-04-24T03:54:53;1.95;;;0.65;;
27889;SDS011;15238;49.082;9.102;2023-04-24T03:56:55;2.95;;;0.50;;
27889;SDS011;15238;49.082;9.102;2023-04-24T03:58:55;1.05;;;0.40;;
27889;SDS011;15238;49.082;9.102;2023-04-24T04:00:56;2.60;;;0.20;;
27889;SDS011;15238;49.082;9.102;2023-04-24T04:02:58;1.08;;;0.40;;
27889;SDS011;15238;49.082;9.102;2023-04-24T04:04:58;0.65;;;0.40;;
27889;SDS011;15238;49.082;9.102;2023-04-24T04:06:59;2.60;;;0.40;;
27889;SDS011;15238;49.082;9.102;2023-04-24T04:09:02;0.63;;;0.30;;
27889;SDS011;15238;49.082;9.102;2023-04-24T04:11:03;0.70;;;0.30;;
27889;SDS011;15238;49.082;9.102;2023-04-24T04:13:03;1.55;;;0.40;;
27889;SDS011;15238;49.082;9.102;2023-04-24T04:15:04;1.50;;;0.20;;
27889;SDS011;15238;49.082;9.102;2023-04-24T04:17:06;0.90;;;0.47;;
27889;SDS011;15238;49.082;9.102;2023-04-24T04:19:07;0.43;;;0.30;;
27889;SDS011;15238;49.082;9.102;2023-04-24T04:21:07;2.35;;;0.50;;
27889;SDS011;15238;49.082;9.102;2023-04-24T04:23:08;1.30;;;0.50;;
27889;SDS011;15238;49.082;9.102;2023-04-24T04:25:08;1.20;;;0.65;;
27889;SDS011;15238;49.082;9.102;2023-04-24T04:27:09;0.77;;;0.47;;
27889;SDS011;15238;49.082;9.102;2023-04-24T04:29:10;1.15;;;0.60;;
27889;SDS011;15238;49.082;9.102;2023-04-24T04:31:11;1.33;;;0.63;;
27889;SDS011;15238;49.082;9.102;2023-04-24T04:33:12;2.20;;;0.70;;
27889;SDS011;15238;49.082;9.102;2023-04-24T04:35:14;4.75;;;1.85;;
27889;SDS011;15238;49.082;9.102;2023-04-24T04:37:14;0.70;;;0.60;;
27889;SDS011;15238;49.082;9.102;2023-04-24T04:39:15;3.15;;;1.00;;
27889;SDS011;15238;49.082;9.102;2023-04-24T04:41:16;0.88;;;0.88;;
27889;SDS011;15238;49.082;9.102;2023-04-24T04:43:18;1.60;;;0.73;;
27889;SDS011;15238;49.082;9.102;2023-04-24T04:45:18;2.13;;;0.80;;
27889;SDS011;15238;49.082;9.102;2023-04-24T04:47:20;3.70;;;1.00;;
27889;SDS011;15238;49.082;9.102;2023-04-24T04:49:23;3.63;;;1.27;;
27889;SDS011;15238;49.082;9.102;2023-04-24T04:51:24;2.55;;;1.45;;
27889;SDS011;15238;49.082;9.102;2023-04-24T04:53:24;2.63;;;1.08;;
27889;SDS011;15238;49.082;9.102;2023-04-24T04:55:25;1.77;;;1.02;;
27889;SDS011;15238;49.082;9.102;2023-04-24T04:57:26;3.10;;;1.10;;
27889;SDS011;15238;49.082;9.102;2023-04-24T04:59:26;1.45;;;0.98;;
27889;SDS011;15238;49.082;9.102;2023-04-24T05:01:27;1.25;;;1.15;;
27889;SDS011;15238;49.082;9.102;2023-04-24T05:03:28;3.65;;;1.45;;
27889;SDS011;15238;49.082;9.102;2023-04-24T05:05:28;2.72;;;1.00;;
27889;SDS011;15238;49.082;9.102;2023-04-24T05:07:29;2.60;;;1.10;;
27889;SDS011;15238;49.082;9.102;2023-04-24T05:09:30;8.48;;;1.40;;
27889;SDS011;15238;49.082;9.102;2023-04-24T05:11:30;5.57;;;1.30;;
27889;SDS011;15238;49.082;9.102;2023-04-24T05:13:31;2.95;;;1.00;;
27889;SDS011;15238;49.082;9.102;2023-04-24T05:15:31;3.38;;;1.00;;
27889;SDS011;15238;49.082;9.102;2023-04-24T05:17:32;2.03;;;1.38;;
27889;SDS011;15238;49.082;9.102;2023-04-24T05:19:32;3.78;;;1.70;;
27889;SDS011;15238;49.082;9.102;2023-04-24T05:21:35;3.97;;;2.40;;
27889;SDS011;15238;49.082;9.102;2023-04-24T05:23:36;3.55;;;1.80;;
27889;SDS011;15238;49.082;9.102;2023-04-24T05:25:37;2.67;;;1.50;;
27889;SDS011;15238;49.082;9.102;2023-04-24T05:27:39;2.85;;;1.30;;
27889;SDS011;15238;49.082;9.102;2023-04-24T05:29:40;3.55;;;1.35;;
27889;SDS011;15238;49.082;9.102;2023-04-24T05:31:40;2.63;;;1.10;;
27889;SDS011;15238;49.082;9.102;2023-04-24T05:33:41;1.00;;;0.90;;
27889;SDS011;15238;49.082;9.102;2023-04-24T05:35:41;1.55;;;1.30;;
27889;SDS011;15238;49.082;9.102;2023-04-24T05:37:46;2.08;;;1.40;;
27889;SDS011;15238;49.082;9.102;2023-04-24T05:39:47;5.00;;;1.33;;
27889;SDS011;15238;49.082;9.102;2023-04-24T05:41:47;2.15;;;1.33;;
27889;SDS011;15238;49.082;9.102;2023-04-24T05:43:48;1.75;;;1.23;;
27889;SDS011;15238;49.082;9.102;2023-04-24T05:45:49;1.48;;;0.90;;
27889;SDS011;15238;49.082;9.102;2023-04-24T05:47:49;2.63;;;1.10;;
27889;SDS011;15238;49.082;9.102;2023-04-24T05:49:52;1.88;;;1.05;;
27889;SDS011;15238;49.082;9.102;2023-04-24T05:51:53;2.50;;;1.20;;
27889;SDS011;15238;49.082;9.102;2023-04-24T05:53:54;3.88;;;1.17;;
27889;SDS011;15238;49.082;9.102;2023-04-24T05:55:54;1.80;;;1.25;;
27889;SDS011;15238;49.082;9.102;2023-04-24T05:57:55;1.33;;;1.00;;
27889;SDS011;15238;49.082;9.102;2023-04-24T05:59:55;2.15;;;1.55;;
27889;SDS011;15238;49.082;9.102;2023-04-24T06:01:56;2.55;;;1.52;;
27889;SDS011;15238;49.082;9.102;2023-04-24T06:03:57;2.30;;;1.45;;
27889;SDS011;15238;49.082;9.102;2023-04-24T06:05:57;1.98;;;1.30;;
27889;SDS011;15238;49.082;9.102;2023-04-24T06:07:58;2.33;;;1.20;;
27889;SDS011;15238;49.082;9.102;2023-04-24T06:09:58;2.75;;;1.50;;
27889;SDS011;15238;49.082;9.102;2023-04-24T06:11:59;2.88;;;1.55;;
27889;SDS011;15238;49.082;9.102;2023-04-24T06:13:59;2.55;;;1.67;;
27889;SDS011;15238;49.082;9.102;2023-04-24T06:16:00;1.83;;;1.30;;
27889;SDS011;15238;49.082;9.102;2023-04-24T06:18:01;2.70;;;1.50;;
27889;SDS011;15238;49.082;9.102;2023-04-24T06:20:02;4.70;;;1.88;;
27889;SDS011;15238;49.082;9.102;2023-04-24T06:22:05;3.33;;;1.60;;
27889;SDS011;15238;49.082;9.102;2023-04-24T06:24:06;2.55;;;1.33;;
27889;SDS011;15238;49.082;9.102;2023-04-24T06:26:06;1.48;;;1.30;;
27889;SDS011;15238;49.082;9.102;2023-04-24T06:28:07;2.00;;;1.60;;
27889;SDS011;15238;49.082;9.102;2023-04-24T06:30:08;3.05;;;1.30;;
27889;SDS011;15238;49.082;9.102;2023-04-24T06:32:09;2.45;;;1.58;;
27889;SDS011;15238;49.082;9.102;2023-04-24T06:34:09;6.00;;;1.40;;
27889;SDS011;15238;49.082;9.102;2023-04-24T06:36:10;3.15;;;1.20;;
27889;SDS011;15238;49.082;9.102;2023-04-24T06:38:10;1.42;;;1.25;;
27889;SDS011;15238;49.082;9.102;2023-04-24T06:40:11;3.45;;;1.55;;
27889;SDS011;15238;49.082;9.102;2023-04-24T06:42:12;6.47;;;1.60;;
27889;SDS011;15238;49.082;9.102;2023-04-24T06:44:12;2.33;;;1.40;;
27889;SDS011;15238;49.082;9.102;2023-04-24T06:46:14;2.22;;;1.25;;
27889;SDS011;15238;49.082;9.102;2023-04-24T06:48:15;2.08;;;1.33;;
27889;SDS011;15238;49.082;9.102;2023-04-24T06:50:15;3.60;;;1.67;;
27889;SDS011;15238;49.082;9.102;2023-04-24T06:52:16;2.95;;;1.58;;
27889;SDS011;15238;49.082;9.102;2023-04-24T06:54:17;4.28;;;1.35;;
27889;SDS011;15238;49.082;9.102;2023-04-24T06:56:17;1.98;;;1.20;;
27889;SDS011;15238;49.082;9.102;2023-04-24T06:58:18;1.55;;;1.38;;
27889;SDS011;15238;49.082;9.102;2023-04-24T07:00:18;3.05;;;1.48;;
27889;SDS011;15238;49.082;9.102;2023-04-24T07:02:19;3.42;;;1.50;;
27889;SDS011;15238;49.082;9.102;2023-04-24T07:04:20;2.45;;;1.45;;
27889;SDS011;15238;49.082;9.102;2023-04-24T07:06:20;1.75;;;1.30;;
27889;SDS011;15238;49.082;9.102;2023-04-24T07:08:22;1.67;;;1.20;;
27889;SDS011;15238;49.082;9.102;2023-04-24T07:10:24;2.00;;;1.08;;
27889;SDS011;15238;49.082;9.102;2023-04-24T07:12:27;2.08;;;1.33;;
27889;SDS011;15238;49.082;9.102;2023-04-24T07:14:27;2.60;;;1.27;;
27889;SDS011;15238;49.082;9.102;2023-04-24T07:16:27;2.53;;;1.63;;
27889;SDS011;15238;49.082;9.102;2023-04-24T07:18:28;4.32;;;1.17;;
27889;SDS011;15238;49.082;9.102;2023-04-24T07:20:29;1.88;;;1.30;;
27889;SDS011;15238;49.082;9.102;2023-04-24T07:22:29;2.38;;;1.10;;
27889;SDS011;15238;49.082;9.102;2023-04-24T07:24:30;4.20;;;1.00;;
27889;SDS011;15238;49.082;9.102;2023-04-24T07:26:32;2.40;;;0.90;;
27889;SDS011;15238;49.082;9.102;2023-04-24T07:28:33;2.13;;;1.10;;
27889;SDS011;15238;49.082;9.102;2023-04-24T07:30:33;5.57;;;1.27;;
27889;SDS011;15238;49.082;9.102;2023-04-24T07:32:34;2.17;;;1.20;;
27889;SDS011;15238;49.082;9.102;2023-04-24T07:34:35;1.95;;;0.82;;
27889;SDS011;15238;49.082;9.102;2023-04-24T07:36:35;5.45;;;1.35;;
27889;SDS011;15238;49.082;9.102;2023-04-24T07:38:38;4.18;;;1.10;;
27889;SDS011;15238;49.082;9.102;2023-04-24T07:40:38;2.55;;;1.00;;
27889;SDS011;15238;49.082;9.102;2023-04-24T07:42:39;1.80;;;1.00;;
27889;SDS011;15238;49.082;9.102;2023-04-24T07:44:39;2.85;;;0.80;;
27889;SDS011;15238;49.082;9.102;2023-04-24T07:46:40;1.67;;;0.90;;
27889;SDS011;15238;49.082;9.102;2023-04-24T07:48:41;3.50;;;0.85;;
27889;SDS011;15238;49.082;9.102;2023-04-24T07:50:42;1.20;;;0.70;;
27889;SDS011;15238;49.082;9.102;2023-04-24T07:52:42;1.20;;;0.77;;
27889;SDS011;15238;49.082;9.102;2023-04-24T07:54:43;3.00;;;1.10;;
27889;SDS011;15238;49.082;9.102;2023-04-24T07:56:43;2.13;;;0.70;;
27889;SDS011;15238;49.082;9.102;2023-04-24T07:58:44;2.35;;;0.90;;
27889;SDS011;15238;49.082;9.102;2023-04-24T08:00:44;1.75;;;0.80;;
27889;SDS011;15238;49.082;9.102;2023-04-24T08:02:45;1.17;;;0.68;;
27889;SDS011;15238;49.082;9.102;2023-04-24T08:04:45;1.30;;;0.80;;
27889;SDS011;15238;49.082;9.102;2023-04-24T08:06:49;4.63;;;0.88;;
27889;SDS011;15238;49.082;9.102;2023-04-24T08:08:49;2.50;;;0.65;;
27889;SDS011;15238;49.082;9.102;2023-04-24T08:10:51;2.40;;;0.90;;
27889;SDS011;15238;49.082;9.102;2023-04-24T08:12:51;3.08;;;0.80;;
27889;SDS011;15238;49.082;9.102;2023-04-24T08:14:52;0.60;;;0.50;;
27889;SDS011;15238;49.082;9.102;2023-04-24T08:16:55;2.80;;;0.88;;
27889;SDS011;15238;49.082;9.102;2023-04-24T08:18:56;2.72;;;0.80;;
27889;SDS011;15238;49.082;9.102;2023-04-24T08:20:57;1.38;;;0.90;;
27889;SDS011;15238;49.082;9.102;2023-04-24T08:23:01;3.53;;;0.90;;
27889;SDS011;15238;49.082;9.102;2023-04-24T08:25:01;1.92;;;0.70;;
27889;SDS011;15238;49.082;9.102;2023-04-24T08:27:02;3.25;;;0.98;;
27889;SDS011;15238;49.082;9.102;2023-04-24T08:29:03;2.33;;;0.70;;
27889;SDS011;15238;49.082;9.102;2023-04-24T08:31:03;2.67;;;0.88;;
27889;SDS011;15238;49.082;9.102;2023-04-24T08:33:04;2.28;;;0.80;;
27889;SDS011;15238;49.082;9.102;2023-04-24T08:35:04;2.10;;;0.82;;
27889;SDS011;15238;49.082;9.102;2023-04-24T08:37:05;2.42;;;0.90;;
27889;SDS011;15238;49.082;9.102;2023-04-24T08:39:06;1.42;;;0.80;;
27889;SDS011;15238;49.082;9.102;2023-04-24T08:41:06;2.03;;;0.85;;
27889;SDS011;15238;49.082;9.102;2023-04-24T08:43:09;1.55;;;0.65;;
27889;SDS011;15238;49.082;9.102;2023-04-24T08:45:11;1.70;;;0.65;;
27889;SDS011;15238;49.082;9.102;2023-04-24T08:47:12;3.45;;;0.73;;
27889;SDS011;15238;49.082;9.102;2023-04-24T08:49:13;3.80;;;0.75;;
27889;SDS011;15238;49.082;9.102;2023-04-24T08:51:16;1.23;;;0.60;;
27889;SDS011;15238;49.082;9.102;2023-04-24T08:53:17;1.80;;;0.63;;
27889;SDS011;15238;49.082;9.102;2023-04-24T08:55:19;2.70;;;0.77;;
27889;SDS011;15238;49.082;9.102;2023-04-24T08:57:21;1.25;;;0.50;;
27889;SDS011;15238;49.082;9.102;2023-04-24T08:59:22;1.65;;;0.30;;
27889;SDS011;15238;49.082;9.102;2023-04-24T09:01:23;7.20;;;0.60;;
27889;SDS011;15238;49.082;9.102;2023-04-24T09:03:25;2.83;;;0.60;;
27889;SDS011;15238;49.082;9.102;2023-04-24T09:05:27;1.00;;;0.40;;
27889;SDS011;15238;49.082;9.102;2023-04-24T09:07:28;0.70;;;0.30;;
27889;SDS011;15238;49.082;9.102;2023-04-24T09:09:32;2.30;;;0.50;;
27889;SDS011;15238;49.082;9.102;2023-04-24T09:11:34;1.70;;;0.52;;
27889;SDS011;15238;49.082;9.102;2023-04-24T09:13:34;1.83;;;0.60;;
27889;SDS011;15238;49.082;9.102;2023-04-24T09:15:35;2.25;;;0.50;;
27889;SDS011;15238;49.082;9.102;2023-04-24T09:17:37;2.40;;;0.98;;
27889;SDS011;15238;49.082;9.102;2023-04-24T09:19:38;1.85;;;0.55;;
27889;SDS011;15238;49.082;9.102;2023-04-24T09:21:38;1.55;;;0.57;;
27889;SDS011;15238;49.082;9.102;2023-04-24T09:23:41;1.88;;;0.25;;
27889;SDS011;15238;49.082;9.102;2023-04-24T09:25:42;3.15;;;0.50;;
27889;SDS011;15238;49.082;9.102;2023-04-24T09:27:43;1.55;;;0.40;;
27889;SDS011;15238;49.082;9.102;2023-04-24T09:29:55;0.60;;;0.52;;
27889;SDS011;15238;49.082;9.102;2023-04-24T09:31:56;1.60;;;0.47;;
27889;SDS011;15238;49.082;9.102;2023-04-24T09:35:57;1.60;;;0.52;;
27889;SDS011;15238;49.082;9.102;2023-04-24T09:37:59;2.97;;;0.50;;
27889;SDS011;15238;49.082;9.102;2023-04-24T09:40:10;2.40;;;0.60;;
27889;SDS011;15238;49.082;9.102;2023-04-24T09:42:18;1.65;;;0.40;;
27889;SDS011;15238;49.082;9.102;2023-04-24T09:44:20;1.50;;;0.47;;
27889;SDS011;15238;49.082;9.102;2023-04-24T09:46:29;1.50;;;0.55;;
27889;SDS011;15238;49.082;9.102;2023-04-24T09:48:36;5.50;;;0.70;;
27889;SDS011;15238;49.082;9.102;2023-04-24T09:50:37;2.03;;;0.60;;
27889;SDS011;15238;49.082;9.102;2023-04-24T09:52:44;2.42;;;0.65;;
27889;SDS011;15238;49.082;9.102;2023-04-24T09:54:52;0.80;;;0.57;;
27889;SDS011;15238;49.082;9.102;2023-04-24T09:56:53;1.20;;;0.50;;
27889;SDS011;15238;49.082;9.102;2023-04-24T09:58:54;1.50;;;0.60;;
27889;SDS011;15238;49.082;9.102;2023-04-24T10:01:03;0.87;;;0.70;;
27889;SDS011;15238;49.082;9.102;2023-04-24T10:03:05;1.67;;;0.82;;
27889;SDS011;15238;49.082;9.102;2023-04-24T10:05:08;1.73;;;0.95;;
27889;SDS011;15238;49.082;9.102;2023-04-24T10:07:11;2.08;;;0.70;;
27889;SDS011;15238;49.082;9.102;2023-04-24T10:09:15;3.08;;;0.98;;
27889;SDS011;15238;49.082;9.102;2023-04-24T10:11:16;4.10;;;1.30;;
27889;SDS011;15238;49.082;9.102;2023-04-24T10:13:17;3.80;;;1.30;;
27889;SDS011;15238;49.082;9.102;2023-04-24T10:15:18;2.88;;;0.90;;
27889;SDS011;15238;49.082;9.102;2023-04-24T10:17:21;2.15;;;1.00;;
27889;SDS011;15238;49.082;9.102;2023-04-24T10:19:24;3.33;;;1.00;;
27889;SDS011;15238;49.082;9.102;2023-04-24T10:21:25;3.03;;;1.10;;
27889;SDS011;15238;49.082;9.102;2023-04-24T10:23:26;2.45;;;0.90;;
27889;SDS011;15238;49.082;9.102;2023-04-24T10:25:29;4.68;;;0.90;;
27889;SDS011;15238;49.082;9.102;2023-04-24T10:27:31;2.05;;;1.20;;
27889;SDS011;15238;49.082;9.102;2023-04-24T10:29:32;4.63;;;1.48;;
27889;SDS011;15238;49.082;9.102;2023-04-24T10:31:36;3.05;;;1.20;;
27889;SDS011;15238;49.082;9.102;2023-04-24T10:33:38;3.40;;;1.15;;
27889;SDS011;15238;49.082;9.102;2023-04-24T10:35:44;4.40;;;1.50;;
27889;SDS011;15238;49.082;9.102;2023-04-24T10:37:49;2.40;;;1.55;;
27889;SDS011;15238;49.082;9.102;2023-04-24T10:40:07;2.33;;;1.40;;
27889;SDS011;15238;49.082;9.102;2023-04-24T10:42:15;3.20;;;1.65;;
27889;SDS011;15238;49.082;9.102;2023-04-24T10:44:16;5.32;;;1.80;;
27889;SDS011;15238;49.082;9.102;2023-04-24T10:46:19;1.88;;;1.30;;
27889;SDS011;15238;49.082;9.102;2023-04-24T10:48:25;1.60;;;1.20;;
27889;SDS011;15238;49.082;9.102;2023-04-24T10:50:27;2.58;;;1.70;;
27889;SDS011;15238;49.082;9.102;2023-04-24T10:52:43;2.92;;;1.52;;
27889;SDS011;15238;49.082;9.102;2023-04-24T10:54:48;1.92;;;1.60;;
27889;SDS011;15238;49.082;9.102;2023-04-24T10:56:50;2.72;;;1.17;;
27889;SDS011;15238;49.082;9.102;2023-04-24T10:58:52;2.03;;;1.27;;
27889;SDS011;15238;49.082;9.102;2023-04-24T11:00:57;3.63;;;1.48;;
27889;SDS011;15238;49.082;9.102;2023-04-24T11:02:59;2.45;;;1.15;;
27889;SDS011;15238;49.082;9.102;2023-04-24T11:05:02;2.35;;;1.17;;
27889;SDS011;15238;49.082;9.102;2023-04-24T11:07:03;1.88;;;1.17;;
27889;SDS011;15238;49.082;9.102;2023-04-24T11:09:05;1.52;;;1.02;;
27889;SDS011;15238;49.082;9.102;2023-04-24T11:11:13;1.77;;;1.05;;
27889;SDS011;15238;49.082;9.102;2023-04-24T11:13:15;1.90;;;1.10;;
27889;SDS011;15238;49.082;9.102;2023-04-24T11:15:17;2.72;;;0.77;;
27889;SDS011;15238;49.082;9.102;2023-04-24T11:19:33;6.78;;;1.40;;
27889;SDS011;15238;49.082;9.102;2023-04-24T11:21:47;3.58;;;1.65;;
27889;SDS011;15238;49.082;9.102;2023-04-24T11:23:55;2.88;;;1.65;;
27889;SDS011;15238;49.082;9.102;2023-04-24T11:26:09;2.53;;;1.60;;
27889;SDS011;15238;49.082;9.102;2023-04-24T11:28:14;3.58;;;1.50;;
27889;SDS011;15238;49.082;9.102;2023-04-24T11:30:19;2.25;;;1.42;;
27889;SDS011;15238;49.082;9.102;2023-04-24T11:32:27;3.10;;;1.60;;
27889;SDS011;15238;49.082;9.102;2023-04-24T11:34:38;2.75;;;1.67;;
27889;SDS011;15238;49.082;9.102;2023-04-24T11:36:39;1.48;;;1.38;;
27889;SDS011;15238;49.082;9.102;2023-04-24T11:38:42;3.08;;;1.40;;
27889;SDS011;15238;49.082;9.102;2023-04-24T11:40:43;2.53;;;1.65;;
27889;SDS011;15238;49.082;9.102;2023-04-24T11:42:45;2.72;;;1.50;;
27889;SDS011;15238;49.082;9.102;2023-04-24T11:44:53;3.35;;;1.50;;
27889;SDS011;15238;49.082;9.102;2023-04-24T11:46:55;2.15;;;1.25;;
27889;SDS011;15238;49.082;9.102;2023-04-24T11:48:56;2.60;;;1.67;;
27889;SDS011;15238;49.082;9.102;2023-04-24T11:50:58;2.58;;;1.40;;
27889;SDS011;15238;49.082;9.102;2023-04-24T11:53:02;3.50;;;1.65;;
27889;SDS011;15238;49.082;9.102;2023-04-24T11:55:05;2.00;;;1.20;;
27889;SDS011;15238;49.082;9.102;2023-04-24T11:57:08;3.20;;;1.48;;
27889;SDS011;15238;49.082;9.102;2023-04-24T11:59:08;4.30;;;1.35;;
27889;SDS011;15238;49.082;9.102;2023-04-24T12:01:09;2.05;;;1.10;;
27889;SDS011;15238;49.082;9.102;2023-04-24T12:03:10;2.35;;;1.48;;
27889;SDS011;15238;49.082;9.102;2023-04-24T12:05:21;1.88;;;1.30;;
27889;SDS011;15238;49.082;9.102;2023-04-24T12:07:23;1.63;;;1.20;;
27889;SDS011;15238;49.082;9.102;2023-04-24T12:09:24;1.23;;;1.00;;
27889;SDS011;15238;49.082;9.102;2023-04-24T12:11:25;2.08;;;1.23;;
27889;SDS011;15238;49.082;9.102;2023-04-24T12:13:25;1.63;;;1.33;;
27889;SDS011;15238;49.082;9.102;2023-04-24T12:15:27;3.33;;;1.50;;
27889;SDS011;15238;49.082;9.102;2023-04-24T12:17:28;2.63;;;1.50;;